createdAt,value
2022-09-15T00:00:08.129Z,0
2022-09-15T00:01:08.518Z,0
2022-09-15T00:02:08.573Z,0
2022-09-15T00:03:08.350Z,0
2022-09-15T00:04:11.233Z,0
2022-09-15T00:05:08.161Z,0
2022-09-15T00:06:08.504Z,0
2022-09-15T00:07:08.274Z,0
2022-09-15T00:08:08.195Z,0
2022-09-15T00:09:08.247Z,0
2022-09-15T00:10:08.169Z,0
2022-09-15T00:11:08.514Z,0
2022-09-15T00:12:08.177Z,0
2022-09-15T00:13:08.086Z,0
2022-09-15T00:14:08.068Z,0
2022-09-15T00:15:11.108Z,0
2022-09-15T00:16:08.519Z,0
2022-09-15T00:17:08.493Z,0
2022-09-15T00:18:08.125Z,0
2022-09-15T00:19:08.081Z,0
2022-09-15T00:20:08.187Z,0
2022-09-15T00:21:08.433Z,0
2022-09-15T00:22:08.195Z,0
2022-09-15T00:23:08.207Z,0
2022-09-15T00:24:08.219Z,0
2022-09-15T00:25:08.266Z,0
2022-09-15T00:26:14.093Z,0
2022-09-15T00:27:08.160Z,0
2022-09-15T00:28:08.189Z,0
2022-09-15T00:29:08.241Z,0
2022-09-15T00:30:08.090Z,0
2022-09-15T00:31:08.572Z,0
2022-09-15T00:32:08.432Z,0
2022-09-15T00:33:08.060Z,0
2022-09-15T00:34:08.160Z,0
2022-09-15T00:35:08.217Z,0
2022-09-15T00:36:08.440Z,0
2022-09-15T00:37:11.122Z,0
2022-09-15T00:38:08.168Z,0
2022-09-15T00:39:08.075Z,0
2022-09-15T00:40:08.157Z,0
2022-09-15T00:41:08.543Z,0
2022-09-15T00:42:08.150Z,0
2022-09-15T00:43:08.214Z,0
2022-09-15T00:44:08.216Z,0
2022-09-15T00:45:08.237Z,0
2022-09-15T00:46:08.579Z,0
2022-09-15T00:47:19.391Z,0
2022-09-15T00:48:11.168Z,0
2022-09-15T00:49:08.159Z,0
2022-09-15T00:50:08.089Z,0
2022-09-15T00:51:08.507Z,0
2022-09-15T00:52:08.250Z,0
2022-09-15T00:53:08.156Z,0
2022-09-15T00:54:08.093Z,0
2022-09-15T00:55:08.226Z,0
2022-09-15T00:56:08.458Z,0
2022-09-15T00:57:08.121Z,0
2022-09-15T00:58:08.129Z,0
2022-09-15T00:59:11.073Z,0
2022-09-15T01:00:08.180Z,0
2022-09-15T01:01:08.609Z,0
2022-09-15T01:02:08.511Z,0
2022-09-15T01:03:08.276Z,0
2022-09-15T01:04:08.267Z,0
2022-09-15T01:05:08.070Z,0
2022-09-15T01:06:08.507Z,0
2022-09-15T01:07:08.172Z,0
2022-09-15T01:08:08.055Z,0
2022-09-15T01:09:08.072Z,0
2022-09-15T01:10:11.093Z,0
2022-09-15T01:11:08.522Z,0
2022-09-15T01:12:08.286Z,0
2022-09-15T01:13:08.232Z,0
2022-09-15T01:14:08.273Z,0
2022-09-15T01:15:08.205Z,0
2022-09-15T01:16:08.467Z,0
2022-09-15T01:17:08.509Z,0
2022-09-15T01:18:08.224Z,0
2022-09-15T01:19:08.196Z,0
2022-09-15T01:20:08.148Z,0
2022-09-15T01:21:14.154Z,0
2022-09-15T01:22:08.165Z,0
2022-09-15T01:23:08.178Z,0
2022-09-15T01:24:08.167Z,0
2022-09-15T01:25:08.186Z,0
2022-09-15T01:26:08.508Z,0
2022-09-15T01:27:30.450Z,0
2022-09-15T01:28:08.178Z,0
2022-09-15T01:29:08.059Z,0
2022-09-15T01:30:08.070Z,0
2022-09-15T01:31:08.509Z,0
2022-09-15T01:32:14.092Z,0
2022-09-15T01:33:08.141Z,0
2022-09-15T01:34:08.079Z,0
2022-09-15T01:35:08.176Z,0
2022-09-15T01:36:08.437Z,0
2022-09-15T01:37:08.209Z,0
2022-09-15T01:38:08.183Z,0
2022-09-15T01:39:08.169Z,0
2022-09-15T01:40:08.390Z,0
2022-09-15T01:41:08.508Z,0
2022-09-15T01:42:08.153Z,0
2022-09-15T01:43:11.080Z,0
2022-09-15T01:44:08.285Z,0
2022-09-15T01:45:08.235Z,0
2022-09-15T01:46:08.582Z,0
2022-09-15T01:47:08.432Z,0
2022-09-15T01:48:08.275Z,0
2022-09-15T01:49:08.087Z,0
2022-09-15T01:50:08.168Z,0
2022-09-15T01:51:08.511Z,0
2022-09-15T01:52:08.290Z,0
2022-09-15T01:53:08.152Z,0
2022-09-15T01:54:11.100Z,0
2022-09-15T01:55:08.144Z,0
2022-09-15T01:56:08.510Z,0
2022-09-15T01:57:08.255Z,0
2022-09-15T01:58:08.220Z,0
2022-09-15T01:59:08.284Z,0
2022-09-15T02:00:08.216Z,0
2022-09-15T02:01:08.579Z,0
2022-09-15T02:02:08.524Z,0
2022-09-15T02:03:08.204Z,0
2022-09-15T02:04:08.068Z,0
2022-09-15T02:05:11.218Z,0
2022-09-15T02:06:08.440Z,0
2022-09-15T02:07:08.251Z,0
2022-09-15T02:08:08.181Z,0
2022-09-15T02:09:08.256Z,0
2022-09-15T02:10:08.123Z,0
2022-09-15T02:11:08.431Z,0
2022-09-15T02:12:08.081Z,0
2022-09-15T02:13:08.139Z,0
2022-09-15T02:14:08.068Z,0
2022-09-15T02:15:08.051Z,0
2022-09-15T02:16:14.163Z,0
2022-09-15T02:17:08.430Z,0
2022-09-15T02:18:08.157Z,0
2022-09-15T02:19:08.080Z,0
2022-09-15T02:20:08.064Z,0
2022-09-15T02:21:08.504Z,0
2022-09-15T02:22:08.147Z,0
2022-09-15T02:23:08.172Z,0
2022-09-15T02:24:08.293Z,0
2022-09-15T02:25:08.273Z,0
2022-09-15T02:26:08.542Z,0
2022-09-15T02:27:11.068Z,0
2022-09-15T02:28:08.176Z,0
2022-09-15T02:29:08.147Z,0
2022-09-15T02:30:08.208Z,0
2022-09-15T02:31:08.487Z,0
2022-09-15T02:32:08.477Z,0
2022-09-15T02:33:08.141Z,0
2022-09-15T02:34:08.207Z,0
2022-09-15T02:35:08.145Z,0
2022-09-15T02:36:08.517Z,0
2022-09-15T02:37:08.257Z,0
2022-09-15T02:38:11.101Z,0
2022-09-15T02:39:08.145Z,0
2022-09-15T02:40:08.122Z,0
2022-09-15T02:41:08.515Z,0
2022-09-15T02:42:08.269Z,0
2022-09-15T02:43:08.272Z,0
2022-09-15T02:44:08.162Z,0
2022-09-15T02:45:08.214Z,0
2022-09-15T02:46:08.513Z,0
2022-09-15T02:47:08.433Z,0
2022-09-15T02:48:08.257Z,0
2022-09-15T02:49:11.162Z,0
2022-09-15T02:50:08.230Z,0
2022-09-15T02:51:08.612Z,0
2022-09-15T02:52:08.276Z,0
2022-09-15T02:53:08.088Z,0
2022-09-15T02:54:08.062Z,0
2022-09-15T02:55:08.210Z,0
2022-09-15T02:56:08.441Z,0
2022-09-15T02:57:08.159Z,0
2022-09-15T02:58:08.091Z,0
2022-09-15T02:59:08.057Z,0
2022-09-15T03:00:11.119Z,0
2022-09-15T03:01:08.497Z,0
2022-09-15T03:02:08.463Z,0
2022-09-15T03:03:08.267Z,0
2022-09-15T03:04:08.293Z,0
2022-09-15T03:05:08.252Z,0
2022-09-15T03:06:08.422Z,0
2022-09-15T03:07:08.220Z,0
2022-09-15T03:08:08.177Z,0
2022-09-15T03:09:08.043Z,0
2022-09-15T03:10:08.123Z,0
2022-09-15T03:11:14.319Z,0
2022-09-15T03:12:08.149Z,0
2022-09-15T03:13:08.076Z,0
2022-09-15T03:14:08.060Z,0
2022-09-15T03:15:08.079Z,0
2022-09-15T03:16:08.544Z,0
2022-09-15T03:17:08.432Z,0
2022-09-15T03:18:08.075Z,0
2022-09-15T03:19:08.191Z,0
2022-09-15T03:20:08.270Z,0
2022-09-15T03:21:08.432Z,0
2022-09-15T03:22:11.213Z,0
2022-09-15T03:23:08.263Z,0
2022-09-15T03:24:08.136Z,0
2022-09-15T03:25:08.186Z,0
2022-09-15T03:26:08.509Z,0
2022-09-15T03:27:08.156Z,0
2022-09-15T03:28:08.213Z,0
2022-09-15T03:29:08.197Z,0
2022-09-15T03:30:08.266Z,0
2022-09-15T03:31:08.487Z,0
2022-09-15T03:32:08.280Z,0
2022-09-15T03:33:11.179Z,0
2022-09-15T03:34:08.228Z,0
2022-09-15T03:35:08.180Z,0
2022-09-15T03:36:08.440Z,0
2022-09-15T03:37:08.159Z,0
2022-09-15T03:38:08.068Z,0
2022-09-15T03:39:08.066Z,0
2022-09-15T03:40:08.153Z,0
2022-09-15T03:41:08.607Z,0
2022-09-15T03:42:08.286Z,0
2022-09-15T03:43:08.237Z,0
2022-09-15T03:44:11.107Z,0
2022-09-15T03:45:08.182Z,0
2022-09-15T03:46:08.581Z,0
2022-09-15T03:47:09.158Z,0
2022-09-15T03:48:08.207Z,0
2022-09-15T03:49:08.068Z,0
2022-09-15T03:50:08.160Z,0
2022-09-15T03:51:08.522Z,0
2022-09-15T03:52:08.181Z,0
2022-09-15T03:53:08.521Z,0
2022-09-15T03:54:08.286Z,0
2022-09-15T03:55:11.109Z,0
2022-09-15T03:56:08.263Z,0
2022-09-15T03:57:08.149Z,0
2022-09-15T03:58:08.513Z,0
2022-09-15T03:59:08.142Z,0
2022-09-15T04:00:08.062Z,0
2022-09-15T04:01:08.093Z,0
2022-09-15T04:02:08.535Z,0
2022-09-15T04:03:08.445Z,0
2022-09-15T04:04:08.145Z,0
2022-09-15T04:05:08.076Z,0
2022-09-15T04:06:11.109Z,0
2022-09-15T04:07:08.293Z,0
2022-09-15T04:08:08.448Z,0
2022-09-15T04:09:08.147Z,0
2022-09-15T04:10:08.171Z,0
2022-09-15T04:11:08.167Z,0
2022-09-15T04:12:08.067Z,0
2022-09-15T04:13:08.519Z,0
2022-09-15T04:14:08.177Z,0
2022-09-15T04:15:08.521Z,0
2022-09-15T04:16:08.372Z,0
2022-09-15T04:17:11.234Z,0
2022-09-15T04:18:08.443Z,0
2022-09-15T04:19:08.228Z,0
2022-09-15T04:20:08.083Z,0
2022-09-15T04:21:08.244Z,0
2022-09-15T04:22:08.163Z,0
2022-09-15T04:23:08.440Z,0
2022-09-15T04:24:08.074Z,0
2022-09-15T04:25:08.054Z,0
2022-09-15T04:26:08.088Z,0
2022-09-15T04:27:08.229Z,0
2022-09-15T04:28:14.129Z,0
2022-09-15T04:29:08.234Z,0
2022-09-15T04:30:08.520Z,0
2022-09-15T04:31:08.389Z,0
2022-09-15T04:32:08.129Z,0
2022-09-15T04:33:08.622Z,0
2022-09-15T04:34:08.162Z,0
2022-09-15T04:35:08.076Z,0
2022-09-15T04:36:08.178Z,0
2022-09-15T04:37:08.139Z,0
2022-09-15T04:38:08.152Z,0
2022-09-15T04:39:11.189Z,0
2022-09-15T04:40:08.303Z,0
2022-09-15T04:41:08.068Z,0
2022-09-15T04:42:08.071Z,0
2022-09-15T04:43:08.519Z,0
2022-09-15T04:44:08.149Z,0
2022-09-15T04:45:08.457Z,0
2022-09-15T04:46:08.336Z,0
2022-09-15T04:47:08.082Z,0
2022-09-15T04:48:08.516Z,0
2022-09-15T04:49:08.122Z,0
2022-09-15T04:50:11.106Z,0
2022-09-15T04:51:08.191Z,0
2022-09-15T04:52:09.853Z,0
2022-09-15T04:53:08.523Z,0
2022-09-15T04:54:08.272Z,0
2022-09-15T04:55:08.286Z,0
2022-09-15T04:56:08.068Z,0
2022-09-15T04:57:08.113Z,0
2022-09-15T04:58:08.517Z,0
2022-09-15T04:59:08.161Z,0
2022-09-15T05:00:08.520Z,0
2022-09-15T05:01:11.262Z,0
2022-09-15T05:02:08.323Z,0
2022-09-15T05:03:08.448Z,0
2022-09-15T05:04:08.266Z,0
2022-09-15T05:05:08.257Z,0
2022-09-15T05:06:08.240Z,0
2022-09-15T05:07:08.154Z,0
2022-09-15T05:08:08.515Z,0
2022-09-15T05:09:10.456Z,0
2022-09-15T05:10:08.137Z,0
2022-09-15T05:11:08.056Z,0
2022-09-15T05:12:11.254Z,0
2022-09-15T05:13:08.447Z,0
2022-09-15T05:14:08.243Z,0
2022-09-15T05:15:08.522Z,0
2022-09-15T05:16:08.253Z,0
2022-09-15T05:17:08.073Z,0
2022-09-15T05:18:08.446Z,0
2022-09-15T05:19:08.088Z,0
2022-09-15T05:20:08.061Z,0
2022-09-15T05:21:08.173Z,0
2022-09-15T05:22:08.174Z,0
2022-09-15T05:23:14.107Z,0
2022-09-15T05:24:08.140Z,0
2022-09-15T05:25:08.218Z,0
2022-09-15T05:26:08.174Z,0
2022-09-15T05:27:08.078Z,0
2022-09-15T05:28:08.510Z,0
2022-09-15T05:29:08.065Z,0
2022-09-15T05:30:35.997Z,0
2022-09-15T05:31:08.188Z,0
2022-09-15T05:32:08.069Z,0
2022-09-15T05:33:08.579Z,0
2022-09-15T05:34:11.189Z,0
2022-09-15T05:35:08.172Z,0
2022-09-15T05:36:08.187Z,0
2022-09-15T05:37:08.188Z,0
2022-09-15T05:38:08.449Z,0
2022-09-15T05:39:08.171Z,0
2022-09-15T05:40:08.632Z,0
2022-09-15T05:41:08.071Z,0
2022-09-15T05:42:08.148Z,0
2022-09-15T05:43:08.520Z,0
2022-09-15T05:44:08.146Z,0
2022-09-15T05:45:11.246Z,0
2022-09-15T05:46:08.340Z,0
2022-09-15T05:47:08.244Z,0
2022-09-15T05:48:08.517Z,0
2022-09-15T05:49:08.266Z,0
2022-09-15T05:50:08.164Z,0
2022-09-15T05:51:08.204Z,0
2022-09-15T05:52:08.064Z,0
2022-09-15T05:53:08.515Z,0
2022-09-15T05:54:08.274Z,0
2022-09-15T05:55:08.154Z,0
2022-09-15T05:56:11.187Z,0
2022-09-15T05:57:08.256Z,0
2022-09-15T05:58:08.525Z,0
2022-09-15T05:59:08.262Z,0
2022-09-15T06:00:08.452Z,0
2022-09-15T06:01:08.248Z,0
2022-09-15T06:02:08.196Z,0
2022-09-15T06:03:08.599Z,0
2022-09-15T06:04:08.253Z,0
2022-09-15T06:05:08.184Z,0
2022-09-15T06:06:08.232Z,0
2022-09-15T06:07:11.203Z,0
2022-09-15T06:08:08.451Z,0
2022-09-15T06:09:08.564Z,0
2022-09-15T06:10:08.274Z,0
2022-09-15T06:11:08.279Z,0
2022-09-15T06:12:08.127Z,0
2022-09-15T06:13:08.220Z,0
2022-09-15T06:14:08.147Z,0
2022-09-15T06:15:08.178Z,0
2022-09-15T06:16:08.221Z,0
2022-09-15T06:17:08.078Z,0
2022-09-15T06:18:14.108Z,0
2022-09-15T06:19:08.136Z,0
2022-09-15T06:20:08.188Z,0
2022-09-15T06:21:08.244Z,0
2022-09-15T06:22:08.074Z,0
2022-09-15T06:23:08.523Z,0
2022-09-15T06:24:08.178Z,0
2022-09-15T06:25:08.073Z,0
2022-09-15T06:26:08.092Z,0
2022-09-15T06:27:08.081Z,0
2022-09-15T06:28:08.521Z,0
2022-09-15T06:29:11.091Z,0
2022-09-15T06:30:08.447Z,0
2022-09-15T06:31:08.273Z,0
2022-09-15T06:32:08.324Z,0
2022-09-15T06:33:08.445Z,0
2022-09-15T06:34:08.225Z,0
2022-09-15T06:35:08.159Z,0
2022-09-15T06:36:08.080Z,0
2022-09-15T06:37:08.076Z,0
2022-09-15T06:38:08.517Z,0
2022-09-15T06:39:08.148Z,0
2022-09-15T06:40:11.176Z,0
2022-09-15T06:41:08.146Z,0
2022-09-15T06:42:09.553Z,0
2022-09-15T06:43:08.535Z,0
2022-09-15T06:44:08.194Z,0
2022-09-15T06:45:08.181Z,0
2022-09-15T06:46:08.301Z,0
2022-09-15T06:47:08.216Z,0
2022-09-15T06:48:23.936Z,0
2022-09-15T06:49:08.213Z,0
2022-09-15T06:50:08.074Z,0
2022-09-15T06:51:11.167Z,0
2022-09-15T06:52:08.232Z,0
2022-09-15T06:53:08.518Z,0
2022-09-15T06:54:08.230Z,0
2022-09-15T06:55:08.180Z,0
2022-09-15T06:56:08.078Z,0
2022-09-15T06:57:08.066Z,0
2022-09-15T06:58:08.523Z,0
2022-09-15T06:59:08.152Z,0
2022-09-15T07:00:08.516Z,0
2022-09-15T07:01:08.213Z,0
2022-09-15T07:02:11.261Z,0
2022-09-15T07:03:08.463Z,0
2022-09-15T07:04:08.063Z,0
2022-09-15T07:05:08.195Z,0
2022-09-15T07:06:08.191Z,0
2022-09-15T07:07:08.535Z,0
2022-09-15T07:08:08.214Z,0
2022-09-15T07:09:08.186Z,0
2022-09-15T07:10:08.287Z,0
2022-09-15T07:11:08.173Z,0
2022-09-15T07:12:08.536Z,0
2022-09-15T07:13:11.190Z,0
2022-09-15T07:14:08.205Z,0
2022-09-15T07:15:08.450Z,0
2022-09-15T07:16:08.269Z,0
2022-09-15T07:17:08.512Z,0
2022-09-15T07:18:08.183Z,0
2022-09-15T07:19:08.093Z,0
2022-09-15T07:20:08.081Z,0
2022-09-15T07:21:08.135Z,0
2022-09-15T07:22:08.448Z,0
2022-09-15T07:23:08.137Z,0
2022-09-15T07:24:11.079Z,0
2022-09-15T07:25:08.175Z,0
2022-09-15T07:26:08.059Z,0
2022-09-15T07:27:08.518Z,0
2022-09-15T07:28:08.137Z,0
2022-09-15T07:29:08.204Z,0
2022-09-15T07:30:08.469Z,0
2022-09-15T07:31:08.090Z,0
2022-09-15T07:32:08.579Z,0
2022-09-15T07:33:08.219Z,0
2022-09-15T07:34:08.207Z,0
2022-09-15T07:35:11.170Z,0
2022-09-15T07:36:08.147Z,0
2022-09-15T07:37:08.531Z,0
2022-09-15T07:38:08.209Z,0
2022-09-15T07:39:08.178Z,0
2022-09-15T07:40:08.299Z,0
2022-09-15T07:41:08.085Z,0
2022-09-15T07:42:08.057Z,0
2022-09-15T07:43:08.069Z,0
2022-09-15T07:44:08.201Z,0
2022-09-15T07:45:08.188Z,0
2022-09-15T07:46:11.222Z,0
2022-09-15T07:47:08.446Z,0
2022-09-15T07:48:08.243Z,0
2022-09-15T07:49:08.067Z,0
2022-09-15T07:50:08.074Z,0
2022-09-15T07:51:08.081Z,0
2022-09-15T07:52:08.450Z,0
2022-09-15T07:53:08.163Z,0
2022-09-15T07:54:08.211Z,0
2022-09-15T07:55:08.243Z,0
2022-09-15T07:56:08.183Z,0
2022-09-15T07:57:14.165Z,0
2022-09-15T07:58:08.148Z,0
2022-09-15T07:59:08.173Z,0
2022-09-15T08:00:08.530Z,0
2022-09-15T08:01:08.375Z,0
2022-09-15T08:02:08.568Z,0
2022-09-15T08:03:08.171Z,0
2022-09-15T08:04:08.189Z,0
2022-09-15T08:05:08.149Z,0
2022-09-15T08:06:08.086Z,0
2022-09-15T08:07:08.531Z,0
2022-09-15T08:08:11.207Z,0
2022-09-15T08:09:08.244Z,0
2022-09-15T08:10:08.067Z,0
2022-09-15T08:11:08.118Z,0
2022-09-15T08:12:08.543Z,0
2022-09-15T08:13:08.201Z,0
2022-09-15T08:14:08.208Z,0
2022-09-15T08:15:08.226Z,0
2022-09-15T08:16:08.247Z,0
2022-09-15T08:17:11.560Z,0
2022-09-15T08:18:08.266Z,0
2022-09-15T08:19:11.202Z,0
2022-09-15T08:20:08.175Z,0
2022-09-15T08:21:08.138Z,0
2022-09-15T08:22:08.533Z,0
2022-09-15T08:23:08.246Z,0
2022-09-15T08:24:08.173Z,0
2022-09-15T08:25:08.071Z,0
2022-09-15T08:26:13.073Z,0
2022-09-15T08:27:08.518Z,0
2022-09-15T08:28:08.160Z,0
2022-09-15T08:29:08.055Z,0
2022-09-15T08:30:14.118Z,0
2022-09-15T08:31:08.249Z,0
2022-09-15T08:32:08.547Z,0
2022-09-15T08:33:08.190Z,0
2022-09-15T08:34:08.057Z,0
2022-09-15T08:35:08.058Z,0
2022-09-15T08:36:08.052Z,0
2022-09-15T08:37:08.523Z,0
2022-09-15T08:38:08.294Z,0
2022-09-15T08:39:08.247Z,0
2022-09-15T08:40:08.214Z,0
2022-09-15T08:41:11.069Z,0
2022-09-15T08:42:08.459Z,0
2022-09-15T08:43:08.180Z,0
2022-09-15T08:44:08.142Z,0
2022-09-15T08:45:08.518Z,0
2022-09-15T08:46:08.316Z,0
2022-09-15T08:47:08.457Z,0
2022-09-15T08:48:08.096Z,0
2022-09-15T08:49:08.059Z,0
2022-09-15T08:50:08.059Z,0
2022-09-15T08:51:08.185Z,0
2022-09-15T08:52:14.155Z,0
2022-09-15T08:53:08.168Z,0
2022-09-15T08:54:08.068Z,0
2022-09-15T08:55:08.158Z,0
2022-09-15T08:56:10.028Z,0
2022-09-15T08:57:08.528Z,0
2022-09-15T08:58:08.175Z,0
2022-09-15T08:59:08.214Z,0
2022-09-15T09:00:08.453Z,0
2022-09-15T09:01:08.140Z,0
2022-09-15T09:02:08.608Z,0
2022-09-15T09:03:11.202Z,0
2022-09-15T09:04:08.210Z,0
2022-09-15T09:05:08.263Z,0
2022-09-15T09:06:08.146Z,0
2022-09-15T09:07:08.522Z,0
2022-09-15T09:08:08.264Z,0
2022-09-15T09:09:08.210Z,0
2022-09-15T09:10:08.195Z,0
2022-09-15T09:11:08.071Z,0
2022-09-15T09:12:08.534Z,0
2022-09-15T09:13:08.143Z,0
2022-09-15T09:14:11.141Z,0
2022-09-15T09:15:08.235Z,0
2022-09-15T09:16:08.111Z,0
2022-09-15T09:17:08.517Z,0
2022-09-15T09:18:08.237Z,0
2022-09-15T09:19:08.068Z,0
2022-09-15T09:20:08.259Z,0
2022-09-15T09:21:08.184Z,0
2022-09-15T09:22:08.447Z,0
2022-09-15T09:23:08.140Z,0
2022-09-15T09:24:08.213Z,0
2022-09-15T09:25:26.236Z,0
2022-09-15T09:26:10.513Z,0
2022-09-15T09:27:08.274Z,0
2022-09-15T09:28:08.189Z,0
2022-09-15T09:29:08.127Z,0
2022-09-15T09:30:08.523Z,0
2022-09-15T09:31:08.397Z,0
2022-09-15T09:32:08.517Z,0
2022-09-15T09:33:08.180Z,0
2022-09-15T09:34:08.099Z,0
2022-09-15T09:35:08.172Z,0
2022-09-15T09:36:11.108Z,0
2022-09-15T09:37:08.444Z,0
2022-09-15T09:38:08.145Z,0
2022-09-15T09:39:08.063Z,0
2022-09-15T09:40:08.311Z,0
2022-09-15T09:41:08.123Z,0
2022-09-15T09:42:08.449Z,0
2022-09-15T09:43:08.219Z,0
2022-09-15T09:44:08.270Z,0
2022-09-15T09:45:08.256Z,0
2022-09-15T09:46:08.269Z,0
2022-09-15T09:47:14.181Z,0
2022-09-15T09:48:08.193Z,0
2022-09-15T09:49:08.178Z,0
2022-09-15T09:50:08.191Z,0
2022-09-15T09:51:08.172Z,0
2022-09-15T09:52:08.625Z,0
2022-09-15T09:53:08.062Z,0
2022-09-15T09:54:08.200Z,0
2022-09-15T09:55:08.264Z,0
2022-09-15T09:56:08.071Z,0
2022-09-15T09:57:08.448Z,79.4453125
2022-09-15T09:58:11.130Z,74.087890625
2022-09-15T09:59:08.251Z,68.51171875
2022-09-15T10:00:08.526Z,61.33984375
2022-09-15T10:01:08.199Z,57.8125
2022-09-15T10:02:08.521Z,55.16015625
2022-09-15T10:03:08.169Z,52.9296875
2022-09-15T10:04:08.089Z,52.2568359375
2022-09-15T10:05:08.170Z,50.2763671875
2022-09-15T10:06:08.161Z,47.9091796875
2022-09-15T10:07:08.513Z,47.052734375
2022-09-15T10:08:08.298Z,45.74609375
2022-09-15T10:09:11.077Z,44.615234375
2022-09-15T10:10:08.278Z,45.65625
2022-09-15T10:11:08.282Z,44.9150390625
2022-09-15T10:12:08.138Z,43.529296875
2022-09-15T10:13:08.172Z,42.9384765625
2022-09-15T10:14:08.174Z,42.1083984375
2022-09-15T10:15:08.204Z,41.1962890625
2022-09-15T10:16:08.187Z,37.9326171875
2022-09-15T10:17:08.518Z,39.09765625
2022-09-15T10:18:08.308Z,37.330078125
2022-09-15T10:19:08.262Z,37.970703125
2022-09-15T10:20:11.061Z,37.2236328125
2022-09-15T10:21:08.149Z,36.298828125
2022-09-15T10:22:08.526Z,37.0869140625
2022-09-15T10:23:08.154Z,39.015625
2022-09-15T10:24:08.061Z,37.2646484375
2022-09-15T10:25:08.094Z,35.4755859375
2022-09-15T10:26:08.181Z,37.125
2022-09-15T10:27:08.525Z,37.9541015625
2022-09-15T10:28:08.245Z,38.7392578125
2022-09-15T10:29:08.195Z,40.30859375
2022-09-15T10:30:08.442Z,42.19140625
2022-09-15T10:31:11.180Z,43.591796875
2022-09-15T10:32:08.586Z,44.4130859375
2022-09-15T10:33:08.222Z,43.9462890625
2022-09-15T10:34:08.182Z,44.3798828125
2022-09-15T10:35:08.238Z,43.33203125
2022-09-15T10:36:08.183Z,43.5576171875
2022-09-15T10:37:08.452Z,41.7021484375
2022-09-15T10:38:08.170Z,43.40625
2022-09-15T10:39:08.179Z,42.5146484375
2022-09-15T10:40:08.190Z,42.0869140625
2022-09-15T10:41:08.054Z,42.3017578125
2022-09-15T10:42:14.607Z,41.0078125
2022-09-15T10:43:08.151Z,41.32421875
2022-09-15T10:44:08.181Z,41.5703125
2022-09-15T10:45:08.448Z,41.0556640625
2022-09-15T10:46:08.224Z,43.0673828125
2022-09-15T10:47:08.520Z,44.3955078125
2022-09-15T10:48:08.183Z,45.0830078125
2022-09-15T10:49:08.083Z,44.7021484375
2022-09-15T10:50:08.103Z,45.4365234375
2022-09-15T10:51:08.085Z,44.6396484375
2022-09-15T10:52:08.523Z,44.779296875
2022-09-15T10:53:11.163Z,44.14453125
2022-09-15T10:54:08.245Z,43.2890625
2022-09-15T10:55:08.180Z,43.3544921875
2022-09-15T10:56:08.093Z,43.1396484375
2022-09-15T10:57:08.519Z,41.19140625
2022-09-15T10:58:08.279Z,40.759765625
2022-09-15T10:59:08.164Z,40.0439453125
2022-09-15T11:00:08.519Z,38.8056640625
2022-09-15T11:01:08.210Z,37.0546875
2022-09-15T11:02:08.573Z,37.9228515625
2022-09-15T11:03:08.199Z,37.3330078125
2022-09-15T11:04:11.220Z,36.2763671875
2022-09-15T11:05:08.181Z,36.1728515625
2022-09-15T11:06:08.074Z,35.416015625
2022-09-15T11:07:08.525Z,34.1201171875
2022-09-15T11:08:08.262Z,33.8046875
2022-09-15T11:09:08.109Z,35.0205078125
2022-09-15T11:10:08.089Z,37.404296875
2022-09-15T11:11:08.076Z,38.1240234375
2022-09-15T11:12:08.522Z,39.2099609375
2022-09-15T11:13:08.183Z,39.4658203125
2022-09-15T11:14:08.208Z,38.52734375
2022-09-15T11:15:18.345Z,38.509765625
2022-09-15T11:16:08.369Z,40.2646484375
2022-09-15T11:17:08.527Z,40.7607421875
2022-09-15T11:18:08.150Z,41.041015625
2022-09-15T11:19:08.110Z,41.521484375
2022-09-15T11:20:08.108Z,42.1103515625
2022-09-15T11:21:08.075Z,43.5341796875
2022-09-15T11:22:08.091Z,43.76953125
2022-09-15T11:23:08.201Z,44.65625
2022-09-15T11:24:08.146Z,44.5048828125
2022-09-15T11:25:08.154Z,44.3330078125
2022-09-15T11:26:11.100Z,44.3017578125
2022-09-15T11:27:08.453Z,45.2470703125
2022-09-15T11:28:08.165Z,46.0263671875
2022-09-15T11:29:08.185Z,46.572265625
2022-09-15T11:30:08.258Z,46.91015625
2022-09-15T11:31:08.204Z,47.908203125
2022-09-15T11:32:08.455Z,47.6435546875
2022-09-15T11:33:08.082Z,48.197265625
2022-09-15T11:34:08.082Z,48.310546875
2022-09-15T11:35:08.077Z,47.98828125
2022-09-15T11:36:08.175Z,47.2861328125
2022-09-15T11:37:14.107Z,48.1962890625
2022-09-15T11:38:12.803Z,48.0126953125
2022-09-15T11:39:08.171Z,49.6630859375
2022-09-15T11:40:08.316Z,50.93359375
2022-09-15T11:41:08.259Z,50.3564453125
2022-09-15T11:42:08.458Z,50.3232421875
2022-09-15T11:43:08.200Z,50.326171875
2022-09-15T11:44:08.190Z,48.8828125
2022-09-15T11:45:08.152Z,49.640625
2022-09-15T11:46:08.205Z,48.998046875
2022-09-15T11:47:08.453Z,47.0341796875
2022-09-15T11:48:11.202Z,47.0146484375
2022-09-15T11:49:08.256Z,47.166015625
2022-09-15T11:50:08.365Z,44.8525390625
2022-09-15T11:51:08.248Z,44.1142578125
2022-09-15T11:52:08.507Z,43.1044921875
2022-09-15T11:53:08.263Z,40.6025390625
2022-09-15T11:54:08.064Z,40.025390625
2022-09-15T11:55:08.074Z,38.134765625
2022-09-15T11:56:08.606Z,35.4169921875
2022-09-15T11:57:08.279Z,36.439453125
2022-09-15T11:58:08.162Z,36.345703125
2022-09-15T11:59:11.219Z,35.80859375
2022-09-15T12:00:08.433Z,36.1787109375
2022-09-15T12:01:08.435Z,34.5185546875
2022-09-15T12:02:08.326Z,35.88671875
2022-09-15T12:03:08.334Z,37.515625
2022-09-15T12:04:08.286Z,37.27734375
2022-09-15T12:05:08.159Z,36.8828125
2022-09-15T12:06:08.512Z,37.408203125
2022-09-15T12:07:09.947Z,38.9501953125
2022-09-15T12:08:08.171Z,39.1328125
2022-09-15T12:09:08.218Z,39.365234375
2022-09-15T12:10:11.088Z,39.625
2022-09-15T12:11:08.536Z,39.4072265625
2022-09-15T12:12:08.130Z,40.908203125
2022-09-15T12:13:08.227Z,42.1943359375
2022-09-15T12:14:08.157Z,43.265625
2022-09-15T12:15:08.059Z,41.392578125
2022-09-15T12:16:08.458Z,40.5361328125
2022-09-15T12:17:08.079Z,41.4755859375
2022-09-15T12:18:27.293Z,40.205078125
2022-09-15T12:19:08.153Z,39.298828125
2022-09-15T12:20:08.082Z,39.224609375
2022-09-15T12:21:14.168Z,38.171875
2022-09-15T12:22:08.185Z,37.4658203125
2022-09-15T12:23:08.178Z,36.9345703125
2022-09-15T12:24:08.243Z,37.8193359375
2022-09-15T12:25:08.197Z,37.9609375
2022-09-15T12:26:08.504Z,39.248046875
2022-09-15T12:27:08.060Z,38.5888671875
2022-09-15T12:28:08.088Z,38.8720703125
2022-09-15T12:29:08.167Z,39.1123046875
2022-09-15T12:30:08.075Z,38.1884765625
2022-09-15T12:31:08.528Z,38.0302734375
2022-09-15T12:32:11.186Z,37.84765625
2022-09-15T12:33:11.561Z,37.80078125
2022-09-15T12:34:08.281Z,38.2529296875
2022-09-15T12:35:13.355Z,37.1611328125
2022-09-15T12:36:08.508Z,36.333984375
2022-09-15T12:37:08.180Z,35.490234375
2022-09-15T12:38:08.081Z,35.9921875
2022-09-15T12:39:08.226Z,34.4296875
2022-09-15T12:40:08.223Z,34.7568359375
2022-09-15T12:41:08.518Z,34.169921875
2022-09-15T12:42:08.224Z,35.318359375
2022-09-15T12:43:11.221Z,35.49609375
2022-09-15T12:44:08.259Z,36.23828125
2022-09-15T12:45:08.211Z,35.7783203125
2022-09-15T12:46:08.466Z,36.6953125
2022-09-15T12:47:08.293Z,36.1572265625
2022-09-15T12:48:08.269Z,36.8076171875
2022-09-15T12:49:08.437Z,37.2802734375
2022-09-15T12:50:08.167Z,37.4833984375
2022-09-15T12:51:08.447Z,38.6689453125
2022-09-15T12:52:08.259Z,38.7392578125
2022-09-15T12:53:08.073Z,38.279296875
2022-09-15T12:54:11.128Z,38.271484375
2022-09-15T12:55:08.153Z,38.4619140625
2022-09-15T12:56:08.517Z,39.1337890625
2022-09-15T12:57:08.111Z,38.578125
2022-09-15T12:58:08.069Z,39.3955078125
2022-09-15T12:59:08.062Z,39.72265625
2022-09-15T13:00:08.170Z,39.9814453125
2022-09-15T13:01:18.095Z,39.62890625
2022-09-15T13:02:08.259Z,38.6015625
2022-09-15T13:03:08.236Z,38.3427734375
2022-09-15T13:04:08.442Z,37.521484375
2022-09-15T13:05:11.101Z,37.134765625
2022-09-15T13:06:08.441Z,37.796875
2022-09-15T13:07:09.799Z,37.658203125
2022-09-15T13:08:08.183Z,36.6591796875
2022-09-15T13:09:08.153Z,36.390625
2022-09-15T13:10:08.090Z,36.73828125
2022-09-15T13:11:08.604Z,37.384765625
2022-09-15T13:12:08.052Z,37.169921875
2022-09-15T13:13:08.220Z,37.1513671875
2022-09-15T13:14:08.268Z,37.587890625
2022-09-15T13:15:08.434Z,37.8251953125
2022-09-15T13:16:14.205Z,38.146484375
2022-09-15T13:17:08.287Z,39.0556640625
2022-09-15T13:18:08.267Z,39.609375
2022-09-15T13:19:08.509Z,39.74609375
2022-09-15T13:20:08.249Z,39.015625
2022-09-15T13:21:08.168Z,39.572265625
2022-09-15T13:22:08.434Z,39.5947265625
2022-09-15T13:23:08.088Z,39